Maersk Iowa — KABL — position and weather

sailwx.info

Track history (hours):
 
Tides and Currents Weather Stations Pressure Air Temp Water Temp Dewpoint Dewpoint Depression Visibility Wind Speed Wind Dir Waves Ship Positions

Maersk Iowa

Owner: FARRELL LINES INC, Norfolk, VA. More information available from US FCC via Universal Licensing System and Coast Guard Vessel Documentation Center.

Last reported at 2017-Jun-24 06:00 UTC. Time now 2017-Jun-24 07:10 UTC.
Position N 49°48' W 005°00'.

Length 292 m; draft 12.5 m.

Type: Ship (hazmat cat A). MMSI: 367606000.

Wind from 270 at 38 knots

Barometer 1017.5 mb
Air temperature 17.0 ° C
Visibility: greater than 2.2 NM
Dewpoint 15.3 ° C
Water temperature 17.0 ° C

Date/timePositionNaut miles runAvg speedWind from/ knotsBaromVisibWave heightAir tempDewpointWater temp
2017-Jun-24 06:00N 49°48' W 005°00'4015.2 270 / 381017.5 2.2 17.015.317.0
2017-Jun-24 03:20N 49°52' W 003°58'618.4
2017-Jun-24 03:00N 49°53' W 003°48'1019.1
2017-Jun-24 02:28N 49°55' W 003°33'920.0
2017-Jun-24 02:00N 49°57' W 003°19'1020.5
2017-Jun-24 01:30N 49°59' W 003°03'1121.3
2017-Jun-24 01:00N 50°01' W 002°47'1121.8
2017-Jun-24 00:30N 50°04' W 002°30'1223.2
2017-Jun-24 00:00N 50°06' W 002°12'419.7 250 / 171019.910.8 16.311.114.7
2017-Jun-23 23:48N 50°08' W 002°07'3419.8
2017-Jun-23 22:06N 50°17' W 001°17'817.6
2017-Jun-23 21:38N 50°20' W 001°04'1916.0
2017-Jun-23 20:27N 50°24' W 000°36'715.8
2017-Jun-23 19:59N 50°26' W 000°24'816.3
2017-Jun-23 19:30N 50°28' W 000°12'816.6
2017-Jun-23 19:00N 50°30' E 000°00'816.9
2017-Jun-23 18:30N 50°32' E 000°13'917.7
2017-Jun-23 18:00N 50°35' E 000°26'918.7
2017-Jun-23 17:30N 50°38' E 000°40'1019.7
2017-Jun-23 17:00N 50°44' E 000°53'2119.9
2017-Jun-23 15:58N 50°56' E 001°20'919.4
2017-Jun-23 15:30N 51°03' E 001°29'917.7
2017-Jun-23 15:00N 51°09' E 001°39'1717.1
2017-Jun-23 14:00N 51°22' E 001°55'816.5
2017-Jun-23 13:30N 51°29' E 002°02'816.4
2017-Jun-23 13:00N 51°35' E 002°11'816.6
2017-Jun-23 12:30N 51°42' E 002°19'916.8
2017-Jun-23 11:58N 51°49' E 002°28'1917.7
2017-Jun-23 10:55N 52°03' E 002°48'919.1
2017-Jun-23 10:27N 52°10' E 002°57'919.7
2017-Jun-23 09:59N 52°17' E 003°07'1020.2
2017-Jun-23 09:29N 52°25' E 003°17'1020.4
2017-Jun-23 09:00N 52°33' E 003°26'1020.5
2017-Jun-23 08:30N 52°41' E 003°37'1120.5
2017-Jun-23 07:59N 52°49' E 003°49'1020.4
2017-Jun-23 07:29N 52°57' E 003°60'1020.0
2017-Jun-23 07:00N 53°03' E 004°12'1019.4
2017-Jun-23 06:30N 53°10' E 004°24'919.1
2017-Jun-23 06:00N 53°18' E 004°31'918.8
2017-Jun-23 05:30N 53°27' E 004°38'917.6
2017-Jun-23 05:00N 53°32' E 004°49'918.2
2017-Jun-23 04:30N 53°35' E 005°04'917.9
2017-Jun-23 04:00N 53°38' E 005°18'918.2
2017-Jun-23 03:30N 53°41' E 005°32'1018.6
2017-Jun-23 02:58N 53°45' E 005°48'7417.9
2017-Jun-22 22:51N 53°52' E 007°52'515.4
2017-Jun-22 22:30N 53°51' E 008°01'917.2
2017-Jun-22 22:00N 53°45' E 008°12'816.6
2017-Jun-22 21:30N 53°40' E 008°23'612.6
2017-Jun-22 21:00N 53°36' E 008°31'1 2.8
2017-Jun-22 20:30N 53°35' E 008°32'0 0.0
2017-Jun-22 20:00N 53°35' E 008°32'0 0.0
2017-Jun-22 19:30N 53°35' E 008°32'0 0.0
2017-Jun-22 19:00N 53°35' E 008°32'0 0.0
2017-Jun-22 18:30N 53°35' E 008°32'0 0.0
2017-Jun-22 18:00N 53°35' E 008°32'0 0.0
2017-Jun-22 17:30N 53°35' E 008°32'0 0.0
2017-Jun-22 17:00N 53°35' E 008°32'0 0.0
2017-Jun-22 16:30N 53°35' E 008°32'0 0.0
2017-Jun-22 16:00N 53°35' E 008°32'0 0.0
2017-Jun-22 15:30N 53°35' E 008°32'0 0.0
2017-Jun-22 15:00N 53°35' E 008°32'0 0.0
2017-Jun-22 14:30N 53°35' E 008°32'0 0.0
2017-Jun-22 13:30N 53°35' E 008°32'0 0.0
2017-Jun-22 13:00N 53°35' E 008°32'0 0.0
2017-Jun-22 12:30N 53°35' E 008°32'0 0.0
2017-Jun-22 12:00N 53°35' E 008°32'0 0.1
2017-Jun-22 11:30N 53°35' E 008°32'0 0.1
2017-Jun-22 11:00N 53°35' E 008°32'0 0.0
2017-Jun-22 10:30N 53°35' E 008°32'0 0.0
2017-Jun-22 10:00N 53°35' E 008°32'0 0.0
2017-Jun-22 09:30N 53°35' E 008°32'0 0.0
2017-Jun-22 09:00N 53°35' E 008°32'0 0.0
2017-Jun-22 08:30N 53°35' E 008°32'0 0.0
2017-Jun-22 08:00N 53°35' E 008°32'0 0.0
2017-Jun-22 07:30N 53°35' E 008°32'0 0.0
2017-Jun-22 07:00N 53°35' E 008°32'0 0.0
2017-Jun-22 06:30N 53°35' E 008°32'0 0.0
2017-Jun-22 06:00N 53°35' E 008°32'0 0.0
2017-Jun-22 05:30N 53°35' E 008°32'0 0.0
2017-Jun-22 05:00N 53°35' E 008°32'0 0.0
2017-Jun-22 04:30N 53°35' E 008°32'0 0.0
2017-Jun-22 04:00N 53°35' E 008°32'0 0.0
2017-Jun-22 03:30N 53°35' E 008°32'0 0.0
2017-Jun-22 03:00N 53°35' E 008°32'0 0.0
2017-Jun-22 02:31N 53°35' E 008°32'0 0.0
2017-Jun-22 02:00N 53°35' E 008°32'0 0.1
2017-Jun-22 01:30N 53°35' E 008°32'0 0.1
2017-Jun-22 01:00N 53°35' E 008°32'0 0.0
2017-Jun-22 00:31N 53°35' E 008°32'0 0.0
2017-Jun-22 00:00N 53°35' E 008°32'0 0.0
2017-Jun-21 23:30N 53°35' E 008°32'0 0.0
2017-Jun-21 23:00N 53°35' E 008°32'0 0.0
2017-Jun-21 22:30N 53°35' E 008°32'0 0.0
2017-Jun-21 22:00N 53°35' E 008°32'0 0.0
2017-Jun-21 21:30N 53°35' E 008°32'0 0.0
2017-Jun-21 21:00N 53°35' E 008°32'0 0.0
2017-Jun-21 20:30N 53°35' E 008°32'0 0.0
2017-Jun-21 20:01N 53°35' E 008°32'0 0.3
2017-Jun-21 19:31N 53°35' E 008°32'4 7.7
2017-Jun-21 19:00N 53°38' E 008°28'612.2
2017-Jun-21 18:31N 53°42' E 008°20'815.2
2017-Jun-21 18:00N 53°47' E 008°10'815.9
2017-Jun-21 17:31N 53°51' E 007°59'812.5
2017-Jun-21 16:52N 53°52' E 007°46'8712.3
2017-Jun-21 09:47N 53°34' E 005°22'413.6
2017-Jun-21 09:30N 53°33' E 005°16'713.4
2017-Jun-21 09:00N 53°30' E 005°06'713.3
2017-Jun-21 08:30N 53°27' E 004°56'1013.2
2017-Jun-21 07:46N 53°22' E 004°42'413.5
2017-Jun-21 07:27N 53°18' E 004°39'813.2
2017-Jun-21 06:53N 53°11' E 004°33'613.2
2017-Jun-21 06:25N 53°06' E 004°27'613.3
2017-Jun-21 06:00N 53°01' E 004°23'713.5
2017-Jun-21 05:30N 52°56' E 004°17'713.4
2017-Jun-21 05:00N 52°50' E 004°12'713.4
2017-Jun-21 04:30N 52°44' E 004°06'713.4
2017-Jun-21 04:00N 52°38' E 004°01'714.0
2017-Jun-21 03:30N 52°32' E 003°56'714.3
2017-Jun-21 03:00N 52°25' E 003°53'714.6
2017-Jun-21 02:31N 52°18' E 003°52'714.8
2017-Jun-21 02:00N 52°10' E 003°54'713.7
2017-Jun-21 01:31N 52°03' E 003°53'510.3
2017-Jun-21 01:01N 52°01' E 003°60'4 7.2
2017-Jun-21 00:30N 51°58' E 004°04'2 4.5
2017-Jun-21 00:00N 51°59' E 004°00'1 2.7
2017-Jun-20 23:30N 51°57' E 004°00'0 0.1
2017-Jun-20 23:00N 51°57' E 004°00'0 0.0
2017-Jun-20 22:30N 51°57' E 004°00'0 0.0
2017-Jun-20 22:00N 51°57' E 004°00'0 0.1
2017-Jun-20 21:30N 51°57' E 004°00'0 0.1
2017-Jun-20 21:00N 51°57' E 004°00'0 0.0
2017-Jun-20 20:30N 51°57' E 004°00'0 0.0
2017-Jun-20 20:00N 51°57' E 004°00'0 0.0
2017-Jun-20 19:30N 51°57' E 004°00'0 0.0
2017-Jun-20 19:00N 51°57' E 004°00'0 0.0
2017-Jun-20 18:30N 51°57' E 004°00'0 0.0
2017-Jun-20 18:00N 51°57' E 004°00'0 0.1
2017-Jun-20 17:30N 51°57' E 004°00'0 0.1
2017-Jun-20 17:00N 51°57' E 004°00'0 0.0
2017-Jun-20 16:30N 51°57' E 004°00'0 0.0
2017-Jun-20 16:00N 51°57' E 004°00'0 0.0
2017-Jun-20 15:30N 51°57' E 004°00'0 0.0
2017-Jun-20 15:00N 51°57' E 004°00'0 0.0
2017-Jun-20 14:00N 51°57' E 004°00'0 0.0
2017-Jun-20 13:30N 51°57' E 004°00'0 0.0
2017-Jun-20 13:00N 51°57' E 004°00'0 0.0
2017-Jun-20 12:30N 51°57' E 004°00'0 0.0
2017-Jun-20 12:00N 51°57' E 004°00'0 0.0
2017-Jun-20 11:30N 51°57' E 004°00'0 0.0
2017-Jun-20 11:00N 51°57' E 004°00'0 0.0
2017-Jun-20 10:30N 51°57' E 004°00'0 0.0
2017-Jun-20 10:00N 51°57' E 004°00'0 0.0
2017-Jun-20 09:30N 51°57' E 004°00'0 0.0
2017-Jun-20 09:00N 51°57' E 004°00'0 0.0
2017-Jun-20 08:30N 51°57' E 004°00'0 0.0
2017-Jun-20 08:00N 51°57' E 004°00'0 0.0
2017-Jun-20 07:30N 51°57' E 004°00'0 0.0
2017-Jun-20 07:00N 51°57' E 004°00'0 0.0
2017-Jun-20 06:30N 51°57' E 004°00'0 0.0
2017-Jun-20 06:00N 51°57' E 004°00'0 0.0
2017-Jun-20 05:30N 51°57' E 004°00'0 0.0
2017-Jun-20 05:00N 51°57' E 004°00'0 0.0
2017-Jun-20 04:30N 51°57' E 004°00'0 0.4
2017-Jun-20 04:00N 51°57' E 004°00'2 3.7
2017-Jun-20 03:30N 51°58' E 004°03'1 2.0
2017-Jun-20 03:00N 51°59' E 004°04'4 7.5
2017-Jun-20 02:30N 51°60' E 003°58'4 8.5
2017-Jun-20 02:00N 51°59' E 003°51'510.2
2017-Jun-20 01:30N 51°58' E 003°43'4 8.3
2017-Jun-20 01:00N 51°56' E 003°37'0 0.2
2017-Jun-20 00:30N 51°56' E 003°37'0 0.1
2017-Jun-20 00:00N 51°56' E 003°37'0 0.0
2017-Jun-19 23:30N 51°56' E 003°37'0 0.0
2017-Jun-19 23:00N 51°56' E 003°37'0 0.0
2017-Jun-19 22:30N 51°56' E 003°37'0 0.0
2017-Jun-19 22:00N 51°56' E 003°37'0 0.0
2017-Jun-19 21:30N 51°56' E 003°37'0 0.0
2017-Jun-19 21:00N 51°56' E 003°37'0 0.1
2017-Jun-19 20:30N 51°56' E 003°37'0 0.5
2017-Jun-19 20:00N 51°56' E 003°37'3 6.6
2017-Jun-19 19:30N 51°55' E 003°32'611.4
2017-Jun-19 18:59N 51°54' E 003°23'4 8.3
2017-Jun-19 18:30N 51°50' E 003°19'4 8.0
2017-Jun-19 18:00N 51°47' E 003°16'4 8.0
2017-Jun-19 17:30N 51°43' E 003°14'713.9
2017-Jun-19 17:00N 51°36' E 003°11'714.0
2017-Jun-19 16:30N 51°30' E 003°05'613.0
2017-Jun-19 16:01N 51°25' E 002°60'917.1
2017-Jun-19 15:30N 51°25' E 003°13'917.2
2017-Jun-19 15:00N 51°25' E 003°27'1313.3
2017-Jun-19 14:00N 51°21' E 003°47'713.8
2017-Jun-19 13:31N 51°24' E 003°57'5 9.3
2017-Jun-19 13:01N 51°22' E 004°04'612.7
2017-Jun-19 12:30N 51°21' E 004°14'4 7.7
2017-Jun-19 12:00N 51°18' E 004°16'1 1.4
2017-Jun-19 11:30N 51°17' E 004°15'0 0.0
2017-Jun-19 11:00N 51°17' E 004°15'0 0.0
2017-Jun-19 10:30N 51°17' E 004°15'0 0.0
2017-Jun-19 10:00N 51°17' E 004°15'0 0.0
2017-Jun-19 09:30N 51°17' E 004°15'0 0.0
2017-Jun-19 09:01N 51°17' E 004°15'0 0.0
2017-Jun-19 08:30N 51°17' E 004°15'0 0.0
2017-Jun-19 08:00N 51°17' E 004°15'0 0.0
2017-Jun-19 07:30N 51°17' E 004°15'0 0.0
2017-Jun-19 07:00N 51°17' E 004°15'0 0.0
2017-Jun-19 06:30N 51°17' E 004°15'0 0.0
2017-Jun-19 06:01N 51°17' E 004°15'0 0.0
2017-Jun-19 05:30N 51°17' E 004°15'0 0.0
2017-Jun-19 05:01N 51°17' E 004°15'0 0.0
2017-Jun-19 04:30N 51°17' E 004°15'0 0.1
2017-Jun-19 04:00N 51°17' E 004°15'0 0.1
2017-Jun-19 03:31N 51°17' E 004°15'0 0.0
2017-Jun-19 03:00N 51°17' E 004°15'0 0.0
2017-Jun-19 02:30N 51°17' E 004°15'0 0.0
2017-Jun-19 02:00N 51°17' E 004°15'0 0.0
2017-Jun-19 01:30N 51°17' E 004°15'0 0.0
2017-Jun-19 01:00N 51°17' E 004°15'0 0.0
2017-Jun-19 00:31N 51°17' E 004°15'0 0.0
2017-Jun-19 00:01N 51°17' E 004°15'0 0.0
2017-Jun-18 23:30N 51°17' E 004°15'0 0.0
2017-Jun-18 23:00N 51°17' E 004°15'0 0.0
2017-Jun-18 22:30N 51°17' E 004°15'0 0.0
2017-Jun-18 22:00N 51°17' E 004°15'0 0.0
2017-Jun-18 21:30N 51°17' E 004°15'0 0.0
2017-Jun-18 21:00N 51°17' E 004°15'0 0.0
2017-Jun-18 20:30N 51°17' E 004°15'0 0.0
2017-Jun-18 20:01N 51°17' E 004°15'0 0.0
2017-Jun-18 19:30N 51°17' E 004°15'0 0.0
2017-Jun-18 19:00N 51°17' E 004°15'0 0.0
2017-Jun-18 18:30N 51°17' E 004°15'0 0.0
2017-Jun-18 18:00N 51°17' E 004°15'0 0.0
2017-Jun-18 17:30N 51°17' E 004°15'0 0.0
2017-Jun-18 17:00N 51°17' E 004°15'0 0.0
2017-Jun-18 16:30N 51°17' E 004°15'0 0.0
2017-Jun-18 16:00N 51°17' E 004°15'0 0.0
2017-Jun-18 15:30N 51°17' E 004°15'0 0.0
2017-Jun-18 15:00N 51°17' E 004°15'0 0.0
2017-Jun-18 14:00N 51°17' E 004°15'0 0.0
2017-Jun-18 13:30N 51°17' E 004°15'0 0.0
2017-Jun-18 13:00N 51°17' E 004°15'0 0.0
2017-Jun-18 12:30N 51°17' E 004°15'0 0.0
2017-Jun-18 12:01N 51°17' E 004°15'0 0.0
2017-Jun-18 11:30N 51°17' E 004°15'0 0.0
2017-Jun-18 11:00N 51°17' E 004°15'0 0.0
2017-Jun-18 10:31N 51°17' E 004°15'0 0.0
2017-Jun-18 10:00N 51°17' E 004°15'0 0.0
2017-Jun-18 09:30N 51°17' E 004°15'0 0.0
2017-Jun-18 09:00N 51°17' E 004°15'0 0.0
2017-Jun-18 08:30N 51°17' E 004°15'0 0.0
2017-Jun-18 08:00N 51°17' E 004°15'0 0.0
2017-Jun-18 07:30N 51°17' E 004°15'0 0.0
2017-Jun-18 07:00N 51°17' E 004°15'0 0.0
2017-Jun-18 06:30N 51°17' E 004°15'0 0.0
2017-Jun-18 06:00N 51°17' E 004°15'0 0.0
2017-Jun-18 05:30N 51°17' E 004°15'0 0.0
2017-Jun-18 05:00N 51°17' E 004°15'0 0.0
2017-Jun-18 04:30N 51°17' E 004°15'0 0.0
2017-Jun-18 04:00N 51°17' E 004°15'0 0.0
2017-Jun-18 03:31N 51°17' E 004°15'1 1.4
2017-Jun-18 03:00N 51°18' E 004°16'1 2.4
2017-Jun-18 02:30N 51°19' E 004°16'3 6.4
2017-Jun-18 02:00N 51°22' E 004°14'4 7.3
2017-Jun-18 01:30N 51°22' E 004°08'5 9.4
2017-Jun-18 01:00N 51°25' E 004°02'510.2
2017-Jun-18 00:30N 51°22' E 003°55'611.6
2017-Jun-18 00:00N 51°22' E 003°46'611.2
2017-Jun-17 23:30N 51°26' E 003°41'4 8.4
2017-Jun-17 23:00N 51°25' E 003°34'2 4.8
2017-Jun-17 22:30N 51°25' E 003°30'4 8.3
2017-Jun-17 22:00N 51°24' E 003°24'917.3
2017-Jun-17 21:30N 51°24' E 003°10'918.8
2017-Jun-17 21:01N 51°25' E 002°55'713.9
2017-Jun-17 20:30N 51°23' E 002°44'4 8.8
2017-Jun-17 20:01N 51°22' E 002°37'917.2
2017-Jun-17 19:30N 51°21' E 002°24'918.6
2017-Jun-17 19:00N 51°16' E 002°11'918.0
2017-Jun-17 18:30N 51°11' E 001°59'918.3
2017-Jun-17 18:00N 51°06' E 001°47'918.6
2017-Jun-17 17:30N 51°00' E 001°35'918.2
2017-Jun-17 17:00N 50°52' E 001°28'917.6
2017-Jun-17 16:30N 50°44' E 001°24'917.8
2017-Jun-17 16:00N 50°38' E 001°13'2618.0
2017-Jun-17 14:34N 50°27' E 000°37'1118.8
2017-Jun-17 14:00N 50°24' E 000°21'1019.4
2017-Jun-17 13:30N 50°21' E 000°06'1021.2
2017-Jun-17 13:00N 50°18' W 000°10'1121.3
2017-Jun-17 12:30N 50°15' W 000°26'1121.2
2017-Jun-17 12:00N 50°13' W 000°42'1121.0
2017-Jun-17 11:30N 50°10' W 000°57'1020.8
2017-Jun-17 11:00N 50°07' W 001°13'1020.3
2017-Jun-17 10:30N 50°05' W 001°28'1019.8
2017-Jun-17 10:00N 50°03' W 001°44'1019.4
2017-Jun-17 09:30N 50°01' W 001°58'918.9
2017-Jun-17 09:01N 49°58' W 002°13'918.6
2017-Jun-17 08:30N 49°55' W 002°26'918.5
2017-Jun-17 08:00N 49°53' W 002°40'918.4
2017-Jun-17 07:31N 49°50' W 002°54'918.6
2017-Jun-17 07:00N 49°48' W 003°08'918.7
2017-Jun-17 06:30N 49°46' W 003°22'918.7
2017-Jun-17 06:00N 49°44' W 003°36'918.7
2017-Jun-17 05:31N 49°42' W 003°50'918.7
2017-Jun-17 05:00N 49°40' W 004°04'918.7
2017-Jun-17 04:30N 49°38' W 004°18'918.7
2017-Jun-17 04:01N 49°36' W 004°32'918.7
2017-Jun-17 03:30N 49°34' W 004°47'918.6
2017-Jun-17 03:00N 49°32' W 005°01'918.7
2017-Jun-17 02:30N 49°30' W 005°15'918.8
2017-Jun-17 02:00N 49°29' W 005°29'918.9
2017-Jun-17 01:31N 49°27' W 005°43'919.0
2017-Jun-17 01:01N 49°25' W 005°58'1019.1
2017-Jun-17 00:31N 49°25' W 006°12'1019.5
2017-Jun-17 00:00N 49°26' W 006°27'3186.4
2017-Jun-17 00:00N 49°24' W 006°24'1225.2 220 / 81030.710.8 17.012.316.1
2017-Jun-16 23:30N 49°27' W 006°42'1019.7
2017-Jun-16 23:00N 49°27' W 006°57'1019.9
2017-Jun-16 22:30N 49°28' W 007°13'1019.9
2017-Jun-16 22:00N 49°29' W 007°28'1020.2
2017-Jun-16 21:30N 49°29' W 007°44'1020.2
2017-Jun-16 21:00N 49°30' W 007°59'1020.1
2017-Jun-16 20:30N 49°30' W 008°15'1320.2
2017-Jun-16 19:53N 49°30' W 008°34'1519.0
2017-Jun-16 19:04N 49°31' W 008°58'117.6
2017-Jun-16 18:59N 49°31' W 009°00'1417.1
2017-Jun-16 18:10N 49°32' W 009°21'317.0
2017-Jun-16 17:59N 49°32' W 009°26'1017.1
2017-Jun-16 17:23N 49°32' W 009°42'1818.4
2017-Jun-16 16:23N 49°33' W 010°11'719.6
2017-Jun-16 16:00N 49°33' W 010°22'7518.8
2017-Jun-16 12:00N 49°30' W 012°18'23819.9 200 / 151028.910.8 18.712.115.0
2017-Jun-16 00:00N 49°18' W 018°24'45919.1 230 / 201022.6 5.4 17.910.914.4
2017-Jun-15 00:00N 48°00' W 029°48'10016.6 210 / 261009.8 5.4 15.011.314.0
2017-Jun-14 18:00N 47°36' W 032°12'10217.0 270 / 101008.6 5.4 20.0 6.113.0
2017-Jun-14 12:00N 47°06' W 034°36'10517.5 270 / 221008.510.8 18.010.614.4
2017-Jun-14 06:00N 46°30' W 037°00'   270 / 291007.6 5.4 13.0 6.815.0
Track history (hours):
 
Tides and Currents Weather Stations Pressure Air Temp Water Temp Dewpoint Dewpoint Depression Visibility Wind Speed Wind Dir Waves Ship Positions

Maersk Iowa

Owner: FARRELL LINES INC, Norfolk, VA. More information available from US FCC via Universal Licensing System and Coast Guard Vessel Documentation Center.

Last reported at 2017-Jun-24 06:00 UTC. Time now 2017-Jun-24 07:10 UTC.
Position N 49°48' W 005°00'.

Length 292 m; draft 12.5 m.

Type: Ship (hazmat cat A). MMSI: 367606000.

Wind from 270 at 38 knots

Barometer 1017.5 mb
Air temperature 17.0 ° C
Visibility: greater than 2.2 NM
Dewpoint 15.3 ° C
Water temperature 17.0 ° C

Date/timePositionNaut miles runAvg speedWind from/ knotsBaromVisibWave heightAir tempDewpointWater temp
2017-Jun-24 06:00N 49°48' W 005°00'4015.2 270 / 381017.5 2.2 17.015.317.0
2017-Jun-24 03:20N 49°52' W 003°58'618.4
2017-Jun-24 03:00N 49°53' W 003°48'1019.1
2017-Jun-24 02:28N 49°55' W 003°33'920.0
2017-Jun-24 02:00N 49°57' W 003°19'1020.5
2017-Jun-24 01:30N 49°59' W 003°03'1121.3
2017-Jun-24 01:00N 50°01' W 002°47'1121.8
2017-Jun-24 00:30N 50°04' W 002°30'1223.2
2017-Jun-24 00:00N 50°06' W 002°12'419.7 250 / 171019.910.8 16.311.114.7
2017-Jun-23 23:48N 50°08' W 002°07'3419.8
2017-Jun-23 22:06N 50°17' W 001°17'817.6
2017-Jun-23 21:38N 50°20' W 001°04'1916.0
2017-Jun-23 20:27N 50°24' W 000°36'715.8
2017-Jun-23 19:59N 50°26' W 000°24'816.3
2017-Jun-23 19:30N 50°28' W 000°12'816.6
2017-Jun-23 19:00N 50°30' E 000°00'816.9
2017-Jun-23 18:30N 50°32' E 000°13'917.7
2017-Jun-23 18:00N 50°35' E 000°26'918.7
2017-Jun-23 17:30N 50°38' E 000°40'1019.7
2017-Jun-23 17:00N 50°44' E 000°53'2119.9
2017-Jun-23 15:58N 50°56' E 001°20'919.4
2017-Jun-23 15:30N 51°03' E 001°29'917.7
2017-Jun-23 15:00N 51°09' E 001°39'1717.1
2017-Jun-23 14:00N 51°22' E 001°55'816.5
2017-Jun-23 13:30N 51°29' E 002°02'816.4
2017-Jun-23 13:00N 51°35' E 002°11'816.6
2017-Jun-23 12:30N 51°42' E 002°19'916.8
2017-Jun-23 11:58N 51°49' E 002°28'1917.7
2017-Jun-23 10:55N 52°03' E 002°48'919.1
2017-Jun-23 10:27N 52°10' E 002°57'919.7
2017-Jun-23 09:59N 52°17' E 003°07'1020.2
2017-Jun-23 09:29N 52°25' E 003°17'1020.4
2017-Jun-23 09:00N 52°33' E 003°26'1020.5
2017-Jun-23 08:30N 52°41' E 003°37'1120.5
2017-Jun-23 07:59N 52°49' E 003°49'1020.4
2017-Jun-23 07:29N 52°57' E 003°60'1020.0
2017-Jun-23 07:00N 53°03' E 004°12'1019.4
2017-Jun-23 06:30N 53°10' E 004°24'919.1
2017-Jun-23 06:00N 53°18' E 004°31'918.8
2017-Jun-23 05:30N 53°27' E 004°38'917.6
2017-Jun-23 05:00N 53°32' E 004°49'918.2
2017-Jun-23 04:30N 53°35' E 005°04'917.9
2017-Jun-23 04:00N 53°38' E 005°18'918.2
2017-Jun-23 03:30N 53°41' E 005°32'1018.6
2017-Jun-23 02:58N 53°45' E 005°48'7417.9
2017-Jun-22 22:51N 53°52' E 007°52'515.4
2017-Jun-22 22:30N 53°51' E 008°01'917.2
2017-Jun-22 22:00N 53°45' E 008°12'816.6
2017-Jun-22 21:30N 53°40' E 008°23'612.6
2017-Jun-22 21:00N 53°36' E 008°31'1 2.8
2017-Jun-22 20:30N 53°35' E 008°32'0 0.0
2017-Jun-22 20:00N 53°35' E 008°32'0 0.0
2017-Jun-22 19:30N 53°35' E 008°32'0 0.0
2017-Jun-22 19:00N 53°35' E 008°32'0 0.0
2017-Jun-22 18:30N 53°35' E 008°32'0 0.0
2017-Jun-22 18:00N 53°35' E 008°32'0 0.0
2017-Jun-22 17:30N 53°35' E 008°32'0 0.0
2017-Jun-22 17:00N 53°35' E 008°32'0 0.0
2017-Jun-22 16:30N 53°35' E 008°32'0 0.0
2017-Jun-22 16:00N 53°35' E 008°32'0 0.0
2017-Jun-22 15:30N 53°35' E 008°32'0 0.0
2017-Jun-22 15:00N 53°35' E 008°32'0 0.0
2017-Jun-22 14:30N 53°35' E 008°32'0 0.0
2017-Jun-22 13:30N 53°35' E 008°32'0 0.0
2017-Jun-22 13:00N 53°35' E 008°32'0 0.0
2017-Jun-22 12:30N 53°35' E 008°32'0 0.0
2017-Jun-22 12:00N 53°35' E 008°32'0 0.1
2017-Jun-22 11:30N 53°35' E 008°32'0 0.1
2017-Jun-22 11:00N 53°35' E 008°32'0 0.0
2017-Jun-22 10:30N 53°35' E 008°32'0 0.0
2017-Jun-22 10:00N 53°35' E 008°32'0 0.0
2017-Jun-22 09:30N 53°35' E 008°32'0 0.0
2017-Jun-22 09:00N 53°35' E 008°32'0 0.0
2017-Jun-22 08:30N 53°35' E 008°32'0 0.0
2017-Jun-22 08:00N 53°35' E 008°32'0 0.0
2017-Jun-22 07:30N 53°35' E 008°32'0 0.0
2017-Jun-22 07:00N 53°35' E 008°32'0 0.0
2017-Jun-22 06:30N 53°35' E 008°32'0 0.0
2017-Jun-22 06:00N 53°35' E 008°32'0 0.0
2017-Jun-22 05:30N 53°35' E 008°32'0 0.0
2017-Jun-22 05:00N 53°35' E 008°32'0 0.0
2017-Jun-22 04:30N 53°35' E 008°32'0 0.0
2017-Jun-22 04:00N 53°35' E 008°32'0 0.0
2017-Jun-22 03:30N 53°35' E 008°32'0 0.0
2017-Jun-22 03:00N 53°35' E 008°32'0 0.0
2017-Jun-22 02:31N 53°35' E 008°32'0 0.0
2017-Jun-22 02:00N 53°35' E 008°32'0 0.1
2017-Jun-22 01:30N 53°35' E 008°32'0 0.1
2017-Jun-22 01:00N 53°35' E 008°32'0 0.0
2017-Jun-22 00:31N 53°35' E 008°32'0 0.0
2017-Jun-22 00:00N 53°35' E 008°32'0 0.0
2017-Jun-21 23:30N 53°35' E 008°32'0 0.0
2017-Jun-21 23:00N 53°35' E 008°32'0 0.0
2017-Jun-21 22:30N 53°35' E 008°32'0 0.0
2017-Jun-21 22:00N 53°35' E 008°32'0 0.0
2017-Jun-21 21:30N 53°35' E 008°32'0 0.0
2017-Jun-21 21:00N 53°35' E 008°32'0 0.0
2017-Jun-21 20:30N 53°35' E 008°32'0 0.0
2017-Jun-21 20:01N 53°35' E 008°32'0 0.3
2017-Jun-21 19:31N 53°35' E 008°32'4 7.7
2017-Jun-21 19:00N 53°38' E 008°28'612.2
2017-Jun-21 18:31N 53°42' E 008°20'815.2
2017-Jun-21 18:00N 53°47' E 008°10'815.9
2017-Jun-21 17:31N 53°51' E 007°59'812.5
2017-Jun-21 16:52N 53°52' E 007°46'8712.3
2017-Jun-21 09:47N 53°34' E 005°22'413.6
2017-Jun-21 09:30N 53°33' E 005°16'713.4
2017-Jun-21 09:00N 53°30' E 005°06'713.3
2017-Jun-21 08:30N 53°27' E 004°56'1013.2
2017-Jun-21 07:46N 53°22' E 004°42'413.5
2017-Jun-21 07:27N 53°18' E 004°39'813.2
2017-Jun-21 06:53N 53°11' E 004°33'613.2
2017-Jun-21 06:25N 53°06' E 004°27'613.3
2017-Jun-21 06:00N 53°01' E 004°23'713.5
2017-Jun-21 05:30N 52°56' E 004°17'713.4
2017-Jun-21 05:00N 52°50' E 004°12'713.4
2017-Jun-21 04:30N 52°44' E 004°06'713.4
2017-Jun-21 04:00N 52°38' E 004°01'714.0
2017-Jun-21 03:30N 52°32' E 003°56'714.3
2017-Jun-21 03:00N 52°25' E 003°53'714.6
2017-Jun-21 02:31N 52°18' E 003°52'714.8
2017-Jun-21 02:00N 52°10' E 003°54'713.7
2017-Jun-21 01:31N 52°03' E 003°53'510.3
2017-Jun-21 01:01N 52°01' E 003°60'4 7.2
2017-Jun-21 00:30N 51°58' E 004°04'2 4.5
2017-Jun-21 00:00N 51°59' E 004°00'1 2.7
2017-Jun-20 23:30N 51°57' E 004°00'0 0.1
2017-Jun-20 23:00N 51°57' E 004°00'0 0.0
2017-Jun-20 22:30N 51°57' E 004°00'0 0.0
2017-Jun-20 22:00N 51°57' E 004°00'0 0.1
2017-Jun-20 21:30N 51°57' E 004°00'0 0.1
2017-Jun-20 21:00N 51°57' E 004°00'0 0.0
2017-Jun-20 20:30N 51°57' E 004°00'0 0.0
2017-Jun-20 20:00N 51°57' E 004°00'0 0.0
2017-Jun-20 19:30N 51°57' E 004°00'0 0.0
2017-Jun-20 19:00N 51°57' E 004°00'0 0.0
2017-Jun-20 18:30N 51°57' E 004°00'0 0.0
2017-Jun-20 18:00N 51°57' E 004°00'0 0.1
2017-Jun-20 17:30N 51°57' E 004°00'0 0.1
2017-Jun-20 17:00N 51°57' E 004°00'0 0.0
2017-Jun-20 16:30N 51°57' E 004°00'0 0.0
2017-Jun-20 16:00N 51°57' E 004°00'0 0.0
2017-Jun-20 15:30N 51°57' E 004°00'0 0.0
2017-Jun-20 15:00N 51°57' E 004°00'0 0.0
2017-Jun-20 14:00N 51°57' E 004°00'0 0.0
2017-Jun-20 13:30N 51°57' E 004°00'0 0.0
2017-Jun-20 13:00N 51°57' E 004°00'0 0.0
2017-Jun-20 12:30N 51°57' E 004°00'0 0.0
2017-Jun-20 12:00N 51°57' E 004°00'0 0.0
2017-Jun-20 11:30N 51°57' E 004°00'0 0.0
2017-Jun-20 11:00N 51°57' E 004°00'0 0.0
2017-Jun-20 10:30N 51°57' E 004°00'0 0.0
2017-Jun-20 10:00N 51°57' E 004°00'0 0.0
2017-Jun-20 09:30N 51°57' E 004°00'0 0.0
2017-Jun-20 09:00N 51°57' E 004°00'0 0.0
2017-Jun-20 08:30N 51°57' E 004°00'0 0.0
2017-Jun-20 08:00N 51°57' E 004°00'0 0.0
2017-Jun-20 07:30N 51°57' E 004°00'0 0.0
2017-Jun-20 07:00N 51°57' E 004°00'0 0.0
2017-Jun-20 06:30N 51°57' E 004°00'0 0.0
2017-Jun-20 06:00N 51°57' E 004°00'0 0.0
2017-Jun-20 05:30N 51°57' E 004°00'0 0.0
2017-Jun-20 05:00N 51°57' E 004°00'0 0.0
2017-Jun-20 04:30N 51°57' E 004°00'0 0.4
2017-Jun-20 04:00N 51°57' E 004°00'2 3.7
2017-Jun-20 03:30N 51°58' E 004°03'1 2.0
2017-Jun-20 03:00N 51°59' E 004°04'4 7.5
2017-Jun-20 02:30N 51°60' E 003°58'4 8.5
2017-Jun-20 02:00N 51°59' E 003°51'510.2
2017-Jun-20 01:30N 51°58' E 003°43'4 8.3
2017-Jun-20 01:00N 51°56' E 003°37'0 0.2
2017-Jun-20 00:30N 51°56' E 003°37'0 0.1
2017-Jun-20 00:00N 51°56' E 003°37'0 0.0
2017-Jun-19 23:30N 51°56' E 003°37'0 0.0
2017-Jun-19 23:00N 51°56' E 003°37'0 0.0
2017-Jun-19 22:30N 51°56' E 003°37'0 0.0
2017-Jun-19 22:00N 51°56' E 003°37'0 0.0
2017-Jun-19 21:30N 51°56' E 003°37'0 0.0
2017-Jun-19 21:00N 51°56' E 003°37'0 0.1
2017-Jun-19 20:30N 51°56' E 003°37'0 0.5
2017-Jun-19 20:00N 51°56' E 003°37'3 6.6
2017-Jun-19 19:30N 51°55' E 003°32'611.4
2017-Jun-19 18:59N 51°54' E 003°23'4 8.3
2017-Jun-19 18:30N 51°50' E 003°19'4 8.0
2017-Jun-19 18:00N 51°47' E 003°16'4 8.0
2017-Jun-19 17:30N 51°43' E 003°14'713.9
2017-Jun-19 17:00N 51°36' E 003°11'714.0
2017-Jun-19 16:30N 51°30' E 003°05'613.0
2017-Jun-19 16:01N 51°25' E 002°60'917.1
2017-Jun-19 15:30N 51°25' E 003°13'917.2
2017-Jun-19 15:00N 51°25' E 003°27'1313.3
2017-Jun-19 14:00N 51°21' E 003°47'713.8
2017-Jun-19 13:31N 51°24' E 003°57'5 9.3
2017-Jun-19 13:01N 51°22' E 004°04'612.7
2017-Jun-19 12:30N 51°21' E 004°14'4 7.7
2017-Jun-19 12:00N 51°18' E 004°16'1 1.4
2017-Jun-19 11:30N 51°17' E 004°15'0 0.0
2017-Jun-19 11:00N 51°17' E 004°15'0 0.0
2017-Jun-19 10:30N 51°17' E 004°15'0 0.0
2017-Jun-19 10:00N 51°17' E 004°15'0 0.0
2017-Jun-19 09:30N 51°17' E 004°15'0 0.0
2017-Jun-19 09:01N 51°17' E 004°15'0 0.0
2017-Jun-19 08:30N 51°17' E 004°15'0 0.0
2017-Jun-19 08:00N 51°17' E 004°15'0 0.0
2017-Jun-19 07:30N 51°17' E 004°15'0 0.0
2017-Jun-19 07:00N 51°17' E 004°15'0 0.0
2017-Jun-19 06:30N 51°17' E 004°15'0 0.0
2017-Jun-19 06:01N 51°17' E 004°15'0 0.0
2017-Jun-19 05:30N 51°17' E 004°15'0 0.0
2017-Jun-19 05:01N 51°17' E 004°15'0 0.0
2017-Jun-19 04:30N 51°17' E 004°15'0 0.1
2017-Jun-19 04:00N 51°17' E 004°15'0 0.1
2017-Jun-19 03:31N 51°17' E 004°15'0 0.0
2017-Jun-19 03:00N 51°17' E 004°15'0 0.0
2017-Jun-19 02:30N 51°17' E 004°15'0 0.0
2017-Jun-19 02:00N 51°17' E 004°15'0 0.0
2017-Jun-19 01:30N 51°17' E 004°15'0 0.0
2017-Jun-19 01:00N 51°17' E 004°15'0 0.0
2017-Jun-19 00:31N 51°17' E 004°15'0 0.0
2017-Jun-19 00:01N 51°17' E 004°15'0 0.0
2017-Jun-18 23:30N 51°17' E 004°15'0 0.0
2017-Jun-18 23:00N 51°17' E 004°15'0 0.0
2017-Jun-18 22:30N 51°17' E 004°15'0 0.0
2017-Jun-18 22:00N 51°17' E 004°15'0 0.0
2017-Jun-18 21:30N 51°17' E 004°15'0 0.0
2017-Jun-18 21:00N 51°17' E 004°15'0 0.0
2017-Jun-18 20:30N 51°17' E 004°15'0 0.0
2017-Jun-18 20:01N 51°17' E 004°15'0 0.0
2017-Jun-18 19:30N 51°17' E 004°15'0 0.0
2017-Jun-18 19:00N 51°17' E 004°15'0 0.0
2017-Jun-18 18:30N 51°17' E 004°15'0 0.0
2017-Jun-18 18:00N 51°17' E 004°15'0 0.0
2017-Jun-18 17:30N 51°17' E 004°15'0 0.0
2017-Jun-18 17:00N 51°17' E 004°15'0 0.0
2017-Jun-18 16:30N 51°17' E 004°15'0 0.0
2017-Jun-18 16:00N 51°17' E 004°15'0 0.0
2017-Jun-18 15:30N 51°17' E 004°15'0 0.0
2017-Jun-18 15:00N 51°17' E 004°15'0 0.0
2017-Jun-18 14:00N 51°17' E 004°15'0 0.0
2017-Jun-18 13:30N 51°17' E 004°15'0 0.0
2017-Jun-18 13:00N 51°17' E 004°15'0 0.0
2017-Jun-18 12:30N 51°17' E 004°15'0 0.0
2017-Jun-18 12:01N 51°17' E 004°15'0 0.0
2017-Jun-18 11:30N 51°17' E 004°15'0 0.0
2017-Jun-18 11:00N 51°17' E 004°15'0 0.0
2017-Jun-18 10:31N 51°17' E 004°15'0 0.0
2017-Jun-18 10:00N 51°17' E 004°15'0 0.0
2017-Jun-18 09:30N 51°17' E 004°15'0 0.0
2017-Jun-18 09:00N 51°17' E 004°15'0 0.0
2017-Jun-18 08:30N 51°17' E 004°15'0 0.0
2017-Jun-18 08:00N 51°17' E 004°15'0 0.0
2017-Jun-18 07:30N 51°17' E 004°15'0 0.0
2017-Jun-18 07:00N 51°17' E 004°15'0 0.0
2017-Jun-18 06:30N 51°17' E 004°15'0 0.0
2017-Jun-18 06:00N 51°17' E 004°15'0 0.0
2017-Jun-18 05:30N 51°17' E 004°15'0 0.0
2017-Jun-18 05:00N 51°17' E 004°15'0 0.0
2017-Jun-18 04:30N 51°17' E 004°15'0 0.0
2017-Jun-18 04:00N 51°17' E 004°15'0 0.0
2017-Jun-18 03:31N 51°17' E 004°15'1 1.4
2017-Jun-18 03:00N 51°18' E 004°16'1 2.4
2017-Jun-18 02:30N 51°19' E 004°16'3 6.4
2017-Jun-18 02:00N 51°22' E 004°14'4 7.3
2017-Jun-18 01:30N 51°22' E 004°08'5 9.4
2017-Jun-18 01:00N 51°25' E 004°02'510.2
2017-Jun-18 00:30N 51°22' E 003°55'611.6
2017-Jun-18 00:00N 51°22' E 003°46'611.2
2017-Jun-17 23:30N 51°26' E 003°41'4 8.4
2017-Jun-17 23:00N 51°25' E 003°34'2 4.8
2017-Jun-17 22:30N 51°25' E 003°30'4 8.3
2017-Jun-17 22:00N 51°24' E 003°24'917.3
2017-Jun-17 21:30N 51°24' E 003°10'918.8
2017-Jun-17 21:01N 51°25' E 002°55'713.9
2017-Jun-17 20:30N 51°23' E 002°44'4 8.8
2017-Jun-17 20:01N 51°22' E 002°37'917.2
2017-Jun-17 19:30N 51°21' E 002°24'918.6
2017-Jun-17 19:00N 51°16' E 002°11'918.0
2017-Jun-17 18:30N 51°11' E 001°59'918.3
2017-Jun-17 18:00N 51°06' E 001°47'918.6
2017-Jun-17 17:30N 51°00' E 001°35'918.2
2017-Jun-17 17:00N 50°52' E 001°28'917.6
2017-Jun-17 16:30N 50°44' E 001°24'917.8
2017-Jun-17 16:00N 50°38' E 001°13'2618.0
2017-Jun-17 14:34N 50°27' E 000°37'1118.8
2017-Jun-17 14:00N 50°24' E 000°21'1019.4
2017-Jun-17 13:30N 50°21' E 000°06'1021.2
2017-Jun-17 13:00N 50°18' W 000°10'1121.3
2017-Jun-17 12:30N 50°15' W 000°26'1121.2
2017-Jun-17 12:00N 50°13' W 000°42'1121.0
2017-Jun-17 11:30N 50°10' W 000°57'1020.8
2017-Jun-17 11:00N 50°07' W 001°13'1020.3
2017-Jun-17 10:30N 50°05' W 001°28'1019.8
2017-Jun-17 10:00N 50°03' W 001°44'1019.4
2017-Jun-17 09:30N 50°01' W 001°58'918.9
2017-Jun-17 09:01N 49°58' W 002°13'918.6
2017-Jun-17 08:30N 49°55' W 002°26'918.5
2017-Jun-17 08:00N 49°53' W 002°40'918.4
2017-Jun-17 07:31N 49°50' W 002°54'918.6
2017-Jun-17 07:00N 49°48' W 003°08'918.7
2017-Jun-17 06:30N 49°46' W 003°22'918.7
2017-Jun-17 06:00N 49°44' W 003°36'918.7
2017-Jun-17 05:31N 49°42' W 003°50'918.7
2017-Jun-17 05:00N 49°40' W 004°04'918.7
2017-Jun-17 04:30N 49°38' W 004°18'918.7
2017-Jun-17 04:01N 49°36' W 004°32'918.7
2017-Jun-17 03:30N 49°34' W 004°47'918.6
2017-Jun-17 03:00N 49°32' W 005°01'918.7
2017-Jun-17 02:30N 49°30' W 005°15'918.8
2017-Jun-17 02:00N 49°29' W 005°29'918.9
2017-Jun-17 01:31N 49°27' W 005°43'919.0
2017-Jun-17 01:01N 49°25' W 005°58'1019.1
2017-Jun-17 00:31N 49°25' W 006°12'1019.5
2017-Jun-17 00:00N 49°26' W 006°27'3186.4
2017-Jun-17 00:00N 49°24' W 006°24'1225.2 220 / 81030.710.8 17.012.316.1
2017-Jun-16 23:30N 49°27' W 006°42'1019.7
2017-Jun-16 23:00N 49°27' W 006°57'1019.9
2017-Jun-16 22:30N 49°28' W 007°13'1019.9
2017-Jun-16 22:00N 49°29' W 007°28'1020.2
2017-Jun-16 21:30N 49°29' W 007°44'1020.2
2017-Jun-16 21:00N 49°30' W 007°59'1020.1
2017-Jun-16 20:30N 49°30' W 008°15'1320.2
2017-Jun-16 19:53N 49°30' W 008°34'1519.0
2017-Jun-16 19:04N 49°31' W 008°58'117.6
2017-Jun-16 18:59N 49°31' W 009°00'1417.1
2017-Jun-16 18:10N 49°32' W 009°21'317.0
2017-Jun-16 17:59N 49°32' W 009°26'1017.1
2017-Jun-16 17:23N 49°32' W 009°42'1818.4
2017-Jun-16 16:23N 49°33' W 010°11'719.6
2017-Jun-16 16:00N 49°33' W 010°22'7518.8
2017-Jun-16 12:00N 49°30' W 012°18'23819.9 200 / 151028.910.8 18.712.115.0
2017-Jun-16 00:00N 49°18' W 018°24'45919.1 230 / 201022.6 5.4 17.910.914.4
2017-Jun-15 00:00N 48°00' W 029°48'10016.6 210 / 261009.8 5.4 15.011.314.0
2017-Jun-14 18:00N 47°36' W 032°12'10217.0 270 / 101008.6 5.4 20.0 6.113.0
2017-Jun-14 12:00N 47°06' W 034°36'10517.5 270 / 221008.510.8 18.010.614.4
2017-Jun-14 06:00N 46°30' W 037°00'   270 / 291007.6 5.4 13.0 6.815.0

Dump ship's entire track history